sensor_id;sensor_type;location;lat;lon;timestamp;P1;durP1;ratioP1;P2;durP2;ratioP2
19903;SDS011;10114;50.970;4.962;2023-03-26T00:01:21;26.05;;;4.22;;
19903;SDS011;10114;50.970;4.962;2023-03-26T00:03:47;25.70;;;4.35;;
19903;SDS011;10114;50.970;4.962;2023-03-26T00:06:18;25.80;;;4.68;;
19903;SDS011;10114;50.970;4.962;2023-03-26T00:08:46;28.08;;;4.45;;
19903;SDS011;10114;50.970;4.962;2023-03-26T00:11:13;29.48;;;3.85;;
19903;SDS011;10114;50.970;4.962;2023-03-26T00:13:40;23.48;;;4.30;;
19903;SDS011;10114;50.970;4.962;2023-03-26T00:16:08;22.25;;;4.00;;
19903;SDS011;10114;50.970;4.962;2023-03-26T00:18:34;25.85;;;4.00;;
19903;SDS011;10114;50.970;4.962;2023-03-26T00:21:02;20.77;;;3.88;;
19903;SDS011;10114;50.970;4.962;2023-03-26T00:23:29;19.50;;;3.17;;
19903;SDS011;10114;50.970;4.962;2023-03-26T00:25:55;16.30;;;3.63;;
19903;SDS011;10114;50.970;4.962;2023-03-26T00:28:22;24.60;;;3.35;;
19903;SDS011;10114;50.970;4.962;2023-03-26T00:30:49;19.98;;;4.18;;
19903;SDS011;10114;50.970;4.962;2023-03-26T00:33:15;23.25;;;3.72;;
19903;SDS011;10114;50.970;4.962;2023-03-26T00:35:42;25.15;;;4.00;;
19903;SDS011;10114;50.970;4.962;2023-03-26T00:38:11;16.45;;;3.75;;
19903;SDS011;10114;50.970;4.962;2023-03-26T00:40:37;21.08;;;3.28;;
19903;SDS011;10114;50.970;4.962;2023-03-26T00:43:07;19.90;;;3.75;;
19903;SDS011;10114;50.970;4.962;2023-03-26T00:45:34;22.02;;;3.42;;
19903;SDS011;10114;50.970;4.962;2023-03-26T00:48:00;14.82;;;3.42;;
19903;SDS011;10114;50.970;4.962;2023-03-26T00:50:26;24.30;;;3.00;;
19903;SDS011;10114;50.970;4.962;2023-03-26T00:52:52;20.92;;;3.08;;
19903;SDS011;10114;50.970;4.962;2023-03-26T00:55:19;17.65;;;2.95;;
19903;SDS011;10114;50.970;4.962;2023-03-26T00:57:47;17.15;;;2.70;;
19903;SDS011;10114;50.970;4.962;2023-03-26T01:00:13;17.50;;;2.55;;
19903;SDS011;10114;50.970;4.962;2023-03-26T01:02:39;15.65;;;2.35;;
19903;SDS011;10114;50.970;4.962;2023-03-26T01:07:52;16.20;;;3.03;;
19903;SDS011;10114;50.970;4.962;2023-03-26T01:10:19;18.13;;;2.35;;
19903;SDS011;10114;50.970;4.962;2023-03-26T01:12:46;17.58;;;2.70;;
19903;SDS011;10114;50.970;4.962;2023-03-26T01:15:12;9.88;;;2.22;;
19903;SDS011;10114;50.970;4.962;2023-03-26T01:17:38;8.23;;;2.25;;
19903;SDS011;10114;50.970;4.962;2023-03-26T01:20:18;20.80;;;4.90;;
19903;SDS011;10114;50.970;4.962;2023-03-26T01:22:51;20.88;;;2.72;;
19903;SDS011;10114;50.970;4.962;2023-03-26T01:25:20;14.55;;;2.58;;
19903;SDS011;10114;50.970;4.962;2023-03-26T01:27:48;15.02;;;2.10;;
19903;SDS011;10114;50.970;4.962;2023-03-26T01:32:45;13.18;;;2.60;;
19903;SDS011;10114;50.970;4.962;2023-03-26T01:35:16;11.82;;;2.35;;
19903;SDS011;10114;50.970;4.962;2023-03-26T01:45:25;9.88;;;2.08;;
19903;SDS011;10114;50.970;4.962;2023-03-26T01:47:53;16.13;;;2.60;;
19903;SDS011;10114;50.970;4.962;2023-03-26T01:50:20;16.60;;;2.53;;
19903;SDS011;10114;50.970;4.962;2023-03-26T01:52:46;12.18;;;2.30;;
19903;SDS011;10114;50.970;4.962;2023-03-26T01:55:12;15.13;;;2.88;;
19903;SDS011;10114;50.970;4.962;2023-03-26T02:07:41;19.13;;;2.60;;
19903;SDS011;10114;50.970;4.962;2023-03-26T02:10:27;13.95;;;2.33;;
19903;SDS011;10114;50.970;4.962;2023-03-26T02:12:54;16.65;;;2.50;;
19903;SDS011;10114;50.970;4.962;2023-03-26T02:15:21;17.17;;;2.97;;
19903;SDS011;10114;50.970;4.962;2023-03-26T02:17:47;18.33;;;2.92;;
19903;SDS011;10114;50.970;4.962;2023-03-26T02:20:14;16.23;;;2.20;;
19903;SDS011;10114;50.970;4.962;2023-03-26T02:22:40;26.23;;;3.25;;
19903;SDS011;10114;50.970;4.962;2023-03-26T02:25:11;16.48;;;2.92;;
19903;SDS011;10114;50.970;4.962;2023-03-26T02:27:38;15.77;;;3.20;;
19903;SDS011;10114;50.970;4.962;2023-03-26T02:30:05;16.25;;;3.10;;
19903;SDS011;10114;50.970;4.962;2023-03-26T02:32:32;17.00;;;2.53;;
19903;SDS011;10114;50.970;4.962;2023-03-26T02:34:59;13.05;;;2.78;;
19903;SDS011;10114;50.970;4.962;2023-03-26T02:37:25;16.92;;;2.70;;
19903;SDS011;10114;50.970;4.962;2023-03-26T02:39:51;16.40;;;2.60;;
19903;SDS011;10114;50.970;4.962;2023-03-26T02:42:17;22.25;;;3.90;;
19903;SDS011;10114;50.970;4.962;2023-03-26T02:44:43;13.32;;;3.38;;
19903;SDS011;10114;50.970;4.962;2023-03-26T02:47:09;21.85;;;2.83;;
19903;SDS011;10114;50.970;4.962;2023-03-26T02:49:35;23.58;;;4.10;;
19903;SDS011;10114;50.970;4.962;2023-03-26T02:52:01;17.63;;;3.38;;
19903;SDS011;10114;50.970;4.962;2023-03-26T02:54:30;17.85;;;3.00;;
19903;SDS011;10114;50.970;4.962;2023-03-26T02:56:57;13.88;;;2.50;;
19903;SDS011;10114;50.970;4.962;2023-03-26T02:59:23;18.35;;;2.97;;
19903;SDS011;10114;50.970;4.962;2023-03-26T03:01:49;19.92;;;3.05;;
19903;SDS011;10114;50.970;4.962;2023-03-26T03:04:15;10.55;;;2.40;;
19903;SDS011;10114;50.970;4.962;2023-03-26T03:06:42;17.05;;;2.50;;
19903;SDS011;10114;50.970;4.962;2023-03-26T03:09:11;17.85;;;3.33;;
19903;SDS011;10114;50.970;4.962;2023-03-26T03:11:38;14.68;;;3.05;;
19903;SDS011;10114;50.970;4.962;2023-03-26T03:14:04;17.52;;;2.55;;
19903;SDS011;10114;50.970;4.962;2023-03-26T03:16:30;12.20;;;2.35;;
19903;SDS011;10114;50.970;4.962;2023-03-26T03:18:56;11.50;;;2.25;;
19903;SDS011;10114;50.970;4.962;2023-03-26T03:21:23;11.15;;;2.50;;
19903;SDS011;10114;50.970;4.962;2023-03-26T03:23:49;10.65;;;2.38;;
19903;SDS011;10114;50.970;4.962;2023-03-26T03:26:19;14.73;;;2.95;;
19903;SDS011;10114;50.970;4.962;2023-03-26T03:28:50;15.35;;;2.47;;
19903;SDS011;10114;50.970;4.962;2023-03-26T03:31:16;15.18;;;2.45;;
19903;SDS011;10114;50.970;4.962;2023-03-26T03:33:42;15.70;;;2.47;;
19903;SDS011;10114;50.970;4.962;2023-03-26T03:36:10;18.25;;;2.50;;
19903;SDS011;10114;50.970;4.962;2023-03-26T03:38:37;14.48;;;2.83;;
19903;SDS011;10114;50.970;4.962;2023-03-26T03:41:04;18.52;;;2.78;;
19903;SDS011;10114;50.970;4.962;2023-03-26T03:43:30;15.48;;;2.10;;
19903;SDS011;10114;50.970;4.962;2023-03-26T03:45:57;14.30;;;2.40;;
19903;SDS011;10114;50.970;4.962;2023-03-26T03:48:23;19.70;;;2.80;;
19903;SDS011;10114;50.970;4.962;2023-03-26T03:50:49;10.88;;;2.83;;
19903;SDS011;10114;50.970;4.962;2023-03-26T03:53:16;11.23;;;2.42;;
19903;SDS011;10114;50.970;4.962;2023-03-26T03:55:42;21.98;;;2.78;;
19903;SDS011;10114;50.970;4.962;2023-03-26T03:58:20;14.02;;;3.00;;
19903;SDS011;10114;50.970;4.962;2023-03-26T04:00:47;16.17;;;2.60;;
19903;SDS011;10114;50.970;4.962;2023-03-26T04:03:13;19.83;;;3.08;;
19903;SDS011;10114;50.970;4.962;2023-03-26T04:05:39;12.60;;;2.58;;
19903;SDS011;10114;50.970;4.962;2023-03-26T04:08:06;16.85;;;2.33;;
19903;SDS011;10114;50.970;4.962;2023-03-26T04:10:32;10.30;;;1.95;;
19903;SDS011;10114;50.970;4.962;2023-03-26T04:12:58;15.32;;;2.92;;
19903;SDS011;10114;50.970;4.962;2023-03-26T04:15:24;15.57;;;2.35;;
19903;SDS011;10114;50.970;4.962;2023-03-26T04:17:50;17.23;;;2.60;;
19903;SDS011;10114;50.970;4.962;2023-03-26T04:20:16;18.23;;;2.90;;
19903;SDS011;10114;50.970;4.962;2023-03-26T04:22:43;19.65;;;2.95;;
19903;SDS011;10114;50.970;4.962;2023-03-26T04:25:10;15.00;;;2.35;;
19903;SDS011;10114;50.970;4.962;2023-03-26T04:27:37;9.65;;;2.00;;
19903;SDS011;10114;50.970;4.962;2023-03-26T04:30:04;16.02;;;2.55;;
19903;SDS011;10114;50.970;4.962;2023-03-26T04:32:31;20.95;;;4.40;;
19903;SDS011;10114;50.970;4.962;2023-03-26T04:35:02;18.25;;;2.60;;
19903;SDS011;10114;50.970;4.962;2023-03-26T04:37:33;15.93;;;2.92;;
19903;SDS011;10114;50.970;4.962;2023-03-26T04:40:00;14.73;;;2.65;;
19903;SDS011;10114;50.970;4.962;2023-03-26T04:42:30;15.32;;;2.30;;
19903;SDS011;10114;50.970;4.962;2023-03-26T04:44:57;22.48;;;2.25;;
19903;SDS011;10114;50.970;4.962;2023-03-26T04:47:23;17.48;;;2.80;;
19903;SDS011;10114;50.970;4.962;2023-03-26T04:49:49;8.75;;;2.33;;
19903;SDS011;10114;50.970;4.962;2023-03-26T04:52:15;10.93;;;2.33;;
19903;SDS011;10114;50.970;4.962;2023-03-26T04:54:42;12.35;;;2.05;;
19903;SDS011;10114;50.970;4.962;2023-03-26T04:57:14;8.70;;;2.63;;
19903;SDS011;10114;50.970;4.962;2023-03-26T04:59:41;10.57;;;2.35;;
19903;SDS011;10114;50.970;4.962;2023-03-26T05:02:08;16.17;;;2.83;;
19903;SDS011;10114;50.970;4.962;2023-03-26T05:04:35;20.77;;;2.72;;
19903;SDS011;10114;50.970;4.962;2023-03-26T05:07:04;13.15;;;2.70;;
19903;SDS011;10114;50.970;4.962;2023-03-26T05:09:31;15.93;;;2.50;;
19903;SDS011;10114;50.970;4.962;2023-03-26T05:11:57;20.27;;;2.83;;
19903;SDS011;10114;50.970;4.962;2023-03-26T05:14:23;15.75;;;2.05;;
19903;SDS011;10114;50.970;4.962;2023-03-26T05:16:49;12.13;;;2.03;;
19903;SDS011;10114;50.970;4.962;2023-03-26T05:19:17;11.48;;;2.15;;
19903;SDS011;10114;50.970;4.962;2023-03-26T05:21:43;14.88;;;2.63;;
19903;SDS011;10114;50.970;4.962;2023-03-26T05:24:10;16.20;;;3.05;;
19903;SDS011;10114;50.970;4.962;2023-03-26T05:26:36;14.27;;;2.28;;
19903;SDS011;10114;50.970;4.962;2023-03-26T05:29:02;15.05;;;2.95;;
19903;SDS011;10114;50.970;4.962;2023-03-26T05:31:29;19.08;;;2.80;;
19903;SDS011;10114;50.970;4.962;2023-03-26T05:33:56;13.18;;;2.53;;
19903;SDS011;10114;50.970;4.962;2023-03-26T05:36:22;12.35;;;2.45;;
19903;SDS011;10114;50.970;4.962;2023-03-26T05:38:48;13.48;;;2.00;;
19903;SDS011;10114;50.970;4.962;2023-03-26T05:41:16;14.20;;;2.30;;
19903;SDS011;10114;50.970;4.962;2023-03-26T05:43:42;14.68;;;2.30;;
19903;SDS011;10114;50.970;4.962;2023-03-26T05:46:12;15.07;;;2.88;;
19903;SDS011;10114;50.970;4.962;2023-03-26T05:48:38;17.45;;;2.95;;
19903;SDS011;10114;50.970;4.962;2023-03-26T05:51:04;16.10;;;3.13;;
19903;SDS011;10114;50.970;4.962;2023-03-26T05:53:31;13.38;;;2.53;;
19903;SDS011;10114;50.970;4.962;2023-03-26T05:55:58;8.27;;;1.90;;
19903;SDS011;10114;50.970;4.962;2023-03-26T05:58:28;14.68;;;2.47;;
19903;SDS011;10114;50.970;4.962;2023-03-26T06:01:04;10.60;;;2.35;;
19903;SDS011;10114;50.970;4.962;2023-03-26T06:03:36;14.70;;;2.30;;
19903;SDS011;10114;50.970;4.962;2023-03-26T06:06:02;15.00;;;2.65;;
19903;SDS011;10114;50.970;4.962;2023-03-26T06:08:28;12.55;;;2.35;;
19903;SDS011;10114;50.970;4.962;2023-03-26T06:10:59;15.60;;;2.08;;
19903;SDS011;10114;50.970;4.962;2023-03-26T06:13:25;16.75;;;2.03;;
19903;SDS011;10114;50.970;4.962;2023-03-26T06:15:51;12.40;;;1.88;;
19903;SDS011;10114;50.970;4.962;2023-03-26T06:18:17;11.65;;;2.22;;
19903;SDS011;10114;50.970;4.962;2023-03-26T06:20:44;10.25;;;2.13;;
19903;SDS011;10114;50.970;4.962;2023-03-26T06:23:10;7.85;;;1.80;;
19903;SDS011;10114;50.970;4.962;2023-03-26T06:25:36;19.48;;;2.10;;
19903;SDS011;10114;50.970;4.962;2023-03-26T06:28:03;13.25;;;2.00;;
19903;SDS011;10114;50.970;4.962;2023-03-26T06:30:29;9.05;;;2.15;;
19903;SDS011;10114;50.970;4.962;2023-03-26T06:32:55;9.90;;;2.03;;
19903;SDS011;10114;50.970;4.962;2023-03-26T06:35:21;13.50;;;1.80;;
19903;SDS011;10114;50.970;4.962;2023-03-26T06:37:48;12.63;;;2.40;;
19903;SDS011;10114;50.970;4.962;2023-03-26T06:40:14;10.88;;;2.08;;
19903;SDS011;10114;50.970;4.962;2023-03-26T06:42:40;10.45;;;1.80;;
19903;SDS011;10114;50.970;4.962;2023-03-26T06:45:06;11.23;;;2.00;;
19903;SDS011;10114;50.970;4.962;2023-03-26T06:47:33;11.45;;;1.60;;
19903;SDS011;10114;50.970;4.962;2023-03-26T06:49:59;9.85;;;2.22;;
19903;SDS011;10114;50.970;4.962;2023-03-26T06:52:25;6.65;;;1.60;;
19903;SDS011;10114;50.970;4.962;2023-03-26T06:54:51;9.63;;;1.98;;
19903;SDS011;10114;50.970;4.962;2023-03-26T06:57:16;8.52;;;1.63;;
19903;SDS011;10114;50.970;4.962;2023-03-26T06:59:42;14.43;;;1.77;;
19903;SDS011;10114;50.970;4.962;2023-03-26T07:02:09;14.85;;;1.92;;
19903;SDS011;10114;50.970;4.962;2023-03-26T07:04:35;8.45;;;1.40;;
19903;SDS011;10114;50.970;4.962;2023-03-26T07:07:02;7.85;;;1.85;;
19903;SDS011;10114;50.970;4.962;2023-03-26T07:09:28;7.10;;;1.65;;
19903;SDS011;10114;50.970;4.962;2023-03-26T07:11:55;12.13;;;1.70;;
19903;SDS011;10114;50.970;4.962;2023-03-26T07:14:21;13.00;;;1.80;;
19903;SDS011;10114;50.970;4.962;2023-03-26T07:16:48;13.32;;;2.17;;
19903;SDS011;10114;50.970;4.962;2023-03-26T07:19:14;12.23;;;1.95;;
19903;SDS011;10114;50.970;4.962;2023-03-26T07:21:40;10.65;;;1.80;;
19903;SDS011;10114;50.970;4.962;2023-03-26T07:24:10;8.23;;;1.77;;
19903;SDS011;10114;50.970;4.962;2023-03-26T07:26:44;7.63;;;1.40;;
19903;SDS011;10114;50.970;4.962;2023-03-26T07:29:22;12.95;;;2.22;;
19903;SDS011;10114;50.970;4.962;2023-03-26T07:31:53;8.82;;;1.48;;
19903;SDS011;10114;50.970;4.962;2023-03-26T07:47:19;6.53;;;1.98;;
19903;SDS011;10114;50.970;4.962;2023-03-26T07:49:51;9.20;;;2.55;;
19903;SDS011;10114;50.970;4.962;2023-03-26T07:52:17;7.65;;;1.55;;
19903;SDS011;10114;50.970;4.962;2023-03-26T07:54:43;8.75;;;1.30;;
19903;SDS011;10114;50.970;4.962;2023-03-26T07:57:33;5.53;;;1.23;;
19903;SDS011;10114;50.970;4.962;2023-03-26T07:59:56;6.53;;;1.17;;
19903;SDS011;10114;50.970;4.962;2023-03-26T08:22:57;4.40;;;1.00;;
19903;SDS011;10114;50.970;4.962;2023-03-26T08:30:36;3.80;;;1.20;;
19903;SDS011;10114;50.970;4.962;2023-03-26T08:35:28;4.05;;;1.17;;
19903;SDS011;10114;50.970;4.962;2023-03-26T08:37:54;6.88;;;1.95;;
19903;SDS011;10114;50.970;4.962;2023-03-26T08:40:36;4.53;;;1.17;;
19903;SDS011;10114;50.970;4.962;2023-03-26T08:56:00;6.60;;;1.60;;
19903;SDS011;10114;50.970;4.962;2023-03-26T09:01:03;4.32;;;1.50;;
19903;SDS011;10114;50.970;4.962;2023-03-26T09:09:13;7.07;;;2.05;;
19903;SDS011;10114;50.970;4.962;2023-03-26T09:19:34;3.47;;;1.17;;
19903;SDS011;10114;50.970;4.962;2023-03-26T09:22:16;10.90;;;2.00;;
19903;SDS011;10114;50.970;4.962;2023-03-26T09:27:35;7.03;;;1.70;;
19903;SDS011;10114;50.970;4.962;2023-03-26T09:38:36;3.05;;;1.42;;
19903;SDS011;10114;50.970;4.962;2023-03-26T09:46:34;3.42;;;1.10;;
19903;SDS011;10114;50.970;4.962;2023-03-26T09:59:15;5.68;;;1.50;;
19903;SDS011;10114;50.970;4.962;2023-03-26T10:12:28;10.68;;;2.45;;
19903;SDS011;10114;50.970;4.962;2023-03-26T10:19:55;8.10;;;1.50;;
19903;SDS011;10114;50.970;4.962;2023-03-26T10:22:39;9.40;;;1.63;;
19903;SDS011;10114;50.970;4.962;2023-03-26T10:25:14;6.88;;;2.47;;
19903;SDS011;10114;50.970;4.962;2023-03-26T10:27:48;7.13;;;2.10;;
19903;SDS011;10114;50.970;4.962;2023-03-26T10:30:37;9.68;;;1.80;;
19903;SDS011;10114;50.970;4.962;2023-03-26T10:35:35;9.45;;;1.88;;
19903;SDS011;10114;50.970;4.962;2023-03-26T10:38:12;7.80;;;1.83;;
19903;SDS011;10114;50.970;4.962;2023-03-26T10:43:21;4.60;;;1.50;;
19903;SDS011;10114;50.970;4.962;2023-03-26T10:48:40;7.32;;;2.00;;
19903;SDS011;10114;50.970;4.962;2023-03-26T10:56:45;7.47;;;1.70;;
19903;SDS011;10114;50.970;4.962;2023-03-26T10:59:12;4.93;;;1.50;;
19903;SDS011;10114;50.970;4.962;2023-03-26T11:01:57;6.03;;;2.33;;
19903;SDS011;10114;50.970;4.962;2023-03-26T11:09:26;9.63;;;3.08;;
19903;SDS011;10114;50.970;4.962;2023-03-26T11:19:44;8.48;;;4.60;;
19903;SDS011;10114;50.970;4.962;2023-03-26T11:22:19;11.00;;;4.75;;
19903;SDS011;10114;50.970;4.962;2023-03-26T11:32:42;11.13;;;5.03;;
19903;SDS011;10114;50.970;4.962;2023-03-26T11:35:26;10.70;;;5.07;;
19903;SDS011;10114;50.970;4.962;2023-03-26T11:37:54;11.25;;;5.20;;
19903;SDS011;10114;50.970;4.962;2023-03-26T11:42:49;9.07;;;4.68;;
19903;SDS011;10114;50.970;4.962;2023-03-26T11:45:20;8.48;;;4.63;;
19903;SDS011;10114;50.970;4.962;2023-03-26T11:47:48;10.25;;;4.40;;
19903;SDS011;10114;50.970;4.962;2023-03-26T11:50:17;9.52;;;4.32;;
19903;SDS011;10114;50.970;4.962;2023-03-26T11:52:45;8.57;;;3.00;;
19903;SDS011;10114;50.970;4.962;2023-03-26T11:55:11;6.35;;;2.60;;
19903;SDS011;10114;50.970;4.962;2023-03-26T11:57:38;5.88;;;3.30;;
19903;SDS011;10114;50.970;4.962;2023-03-26T12:00:09;9.98;;;3.50;;
19903;SDS011;10114;50.970;4.962;2023-03-26T12:02:42;9.13;;;3.70;;
19903;SDS011;10114;50.970;4.962;2023-03-26T12:05:13;8.05;;;3.25;;
19903;SDS011;10114;50.970;4.962;2023-03-26T12:07:48;6.03;;;3.13;;
19903;SDS011;10114;50.970;4.962;2023-03-26T12:12:47;8.20;;;3.92;;
19903;SDS011;10114;50.970;4.962;2023-03-26T12:15:17;9.13;;;2.97;;
19903;SDS011;10114;50.970;4.962;2023-03-26T12:17:44;7.07;;;3.92;;
19903;SDS011;10114;50.970;4.962;2023-03-26T12:25:23;8.38;;;2.58;;
19903;SDS011;10114;50.970;4.962;2023-03-26T12:32:50;6.63;;;2.95;;
19903;SDS011;10114;50.970;4.962;2023-03-26T12:35:26;6.13;;;2.40;;
19903;SDS011;10114;50.970;4.962;2023-03-26T12:37:54;6.82;;;2.15;;
19903;SDS011;10114;50.970;4.962;2023-03-26T12:40:32;6.05;;;2.17;;
19903;SDS011;10114;50.970;4.962;2023-03-26T12:43:01;5.88;;;1.83;;
19903;SDS011;10114;50.970;4.962;2023-03-26T12:45:29;5.57;;;1.85;;
19903;SDS011;10114;50.970;4.962;2023-03-26T12:47:56;4.32;;;1.90;;
19903;SDS011;10114;50.970;4.962;2023-03-26T12:50:26;4.05;;;1.52;;
19903;SDS011;10114;50.970;4.962;2023-03-26T13:05:27;4.82;;;1.75;;
19903;SDS011;10114;50.970;4.962;2023-03-26T13:15:35;3.78;;;1.60;;
19903;SDS011;10114;50.970;4.962;2023-03-26T13:23:46;4.60;;;2.05;;
19903;SDS011;10114;50.970;4.962;2023-03-26T13:34:48;4.05;;;1.73;;
19903;SDS011;10114;50.970;4.962;2023-03-26T13:37:24;5.45;;;2.20;;
19903;SDS011;10114;50.970;4.962;2023-03-26T13:39:56;4.15;;;1.55;;
19903;SDS011;10114;50.970;4.962;2023-03-26T13:47:51;1.80;;;0.90;;
19903;SDS011;10114;50.970;4.962;2023-03-26T13:50:29;5.28;;;1.40;;
19903;SDS011;10114;50.970;4.962;2023-03-26T13:53:02;3.30;;;1.70;;
19903;SDS011;10114;50.970;4.962;2023-03-26T13:55:32;3.95;;;1.52;;
19903;SDS011;10114;50.970;4.962;2023-03-26T14:00:49;1.33;;;0.68;;
19903;SDS011;10114;50.970;4.962;2023-03-26T14:05:59;2.22;;;0.80;;
19903;SDS011;10114;50.970;4.962;2023-03-26T14:08:35;3.35;;;0.82;;
19903;SDS011;10114;50.970;4.962;2023-03-26T14:11:19;1.63;;;0.65;;
19903;SDS011;10114;50.970;4.962;2023-03-26T14:13:59;2.42;;;0.88;;
19903;SDS011;10114;50.970;4.962;2023-03-26T14:16:42;2.05;;;0.77;;
19903;SDS011;10114;50.970;4.962;2023-03-26T14:19:31;2.35;;;0.90;;
19903;SDS011;10114;50.970;4.962;2023-03-26T14:30:21;2.67;;;0.88;;
19903;SDS011;10114;50.970;4.962;2023-03-26T14:35:22;1.77;;;0.80;;
19903;SDS011;10114;50.970;4.962;2023-03-26T14:53:24;2.83;;;1.08;;
19903;SDS011;10114;50.970;4.962;2023-03-26T14:58:33;2.92;;;1.17;;
19903;SDS011;10114;50.970;4.962;2023-03-26T15:01:20;3.90;;;1.30;;
19903;SDS011;10114;50.970;4.962;2023-03-26T15:24:35;6.10;;;1.48;;
19903;SDS011;10114;50.970;4.962;2023-03-26T15:29:50;4.53;;;1.70;;
19903;SDS011;10114;50.970;4.962;2023-03-26T15:37:43;4.72;;;1.92;;
19903;SDS011;10114;50.970;4.962;2023-03-26T15:40:55;3.60;;;1.70;;
19903;SDS011;10114;50.970;4.962;2023-03-26T15:45:35;5.60;;;1.60;;
19903;SDS011;10114;50.970;4.962;2023-03-26T15:48:11;5.60;;;2.00;;
19903;SDS011;10114;50.970;4.962;2023-03-26T15:50:45;5.07;;;2.30;;
19903;SDS011;10114;50.970;4.962;2023-03-26T15:53:18;7.07;;;2.60;;
19903;SDS011;10114;50.970;4.962;2023-03-26T15:58:44;5.25;;;2.50;;
19903;SDS011;10114;50.970;4.962;2023-03-26T16:03:57;7.80;;;3.10;;
19903;SDS011;10114;50.970;4.962;2023-03-26T16:06:29;7.85;;;3.72;;
19903;SDS011;10114;50.970;4.962;2023-03-26T16:09:04;6.57;;;3.08;;
19903;SDS011;10114;50.970;4.962;2023-03-26T16:14:10;9.48;;;4.93;;
19903;SDS011;10114;50.970;4.962;2023-03-26T16:16:51;7.20;;;3.15;;
19903;SDS011;10114;50.970;4.962;2023-03-26T16:22:00;15.20;;;5.32;;
19903;SDS011;10114;50.970;4.962;2023-03-26T16:24:34;20.42;;;5.45;;
19903;SDS011;10114;50.970;4.962;2023-03-26T16:27:46;28.08;;;6.43;;
19903;SDS011;10114;50.970;4.962;2023-03-26T16:32:26;17.48;;;6.15;;
19903;SDS011;10114;50.970;4.962;2023-03-26T16:34:55;17.60;;;5.45;;
19903;SDS011;10114;50.970;4.962;2023-03-26T16:37:33;20.95;;;6.68;;
19903;SDS011;10114;50.970;4.962;2023-03-26T16:42:46;28.52;;;6.63;;
19903;SDS011;10114;50.970;4.962;2023-03-26T16:45:21;24.92;;;5.72;;
19903;SDS011;10114;50.970;4.962;2023-03-26T16:51:03;25.38;;;5.50;;
19903;SDS011;10114;50.970;4.962;2023-03-26T16:56:05;23.92;;;5.22;;
19903;SDS011;10114;50.970;4.962;2023-03-26T17:06:02;20.42;;;6.20;;
19903;SDS011;10114;50.970;4.962;2023-03-26T17:11:15;22.50;;;4.90;;
19903;SDS011;10114;50.970;4.962;2023-03-26T17:14:05;29.17;;;5.72;;
19903;SDS011;10114;50.970;4.962;2023-03-26T17:16:34;21.60;;;6.32;;
19903;SDS011;10114;50.970;4.962;2023-03-26T17:24:22;21.08;;;4.47;;
19903;SDS011;10114;50.970;4.962;2023-03-26T17:32:06;15.88;;;4.10;;
19903;SDS011;10114;50.970;4.962;2023-03-26T17:42:27;17.08;;;3.33;;
19903;SDS011;10114;50.970;4.962;2023-03-26T17:44:57;18.23;;;4.28;;
19903;SDS011;10114;50.970;4.962;2023-03-26T17:55:38;10.85;;;3.20;;
19903;SDS011;10114;50.970;4.962;2023-03-26T17:58:06;13.80;;;4.07;;
19903;SDS011;10114;50.970;4.962;2023-03-26T18:00:41;16.95;;;3.72;;
19903;SDS011;10114;50.970;4.962;2023-03-26T18:03:22;10.18;;;2.80;;
19903;SDS011;10114;50.970;4.962;2023-03-26T18:05:53;15.05;;;3.10;;
19903;SDS011;10114;50.970;4.962;2023-03-26T18:16:22;10.48;;;2.17;;
19903;SDS011;10114;50.970;4.962;2023-03-26T18:18:53;11.93;;;2.83;;
19903;SDS011;10114;50.970;4.962;2023-03-26T18:21:31;9.32;;;2.80;;
19903;SDS011;10114;50.970;4.962;2023-03-26T18:23:57;11.23;;;2.50;;
19903;SDS011;10114;50.970;4.962;2023-03-26T18:26:31;7.97;;;1.70;;
19903;SDS011;10114;50.970;4.962;2023-03-26T18:29:08;11.05;;;2.17;;
19903;SDS011;10114;50.970;4.962;2023-03-26T18:31:35;9.77;;;1.60;;
19903;SDS011;10114;50.970;4.962;2023-03-26T18:34:05;9.75;;;2.10;;
19903;SDS011;10114;50.970;4.962;2023-03-26T18:36:37;12.90;;;2.28;;
19903;SDS011;10114;50.970;4.962;2023-03-26T18:39:03;10.93;;;1.95;;
19903;SDS011;10114;50.970;4.962;2023-03-26T18:43:55;16.92;;;2.92;;
19903;SDS011;10114;50.970;4.962;2023-03-26T18:46:25;11.85;;;2.10;;
19903;SDS011;10114;50.970;4.962;2023-03-26T18:48:51;8.10;;;2.00;;
19903;SDS011;10114;50.970;4.962;2023-03-26T18:51:19;7.25;;;1.45;;
19903;SDS011;10114;50.970;4.962;2023-03-26T18:53:59;10.48;;;2.20;;
19903;SDS011;10114;50.970;4.962;2023-03-26T18:56:34;8.10;;;2.10;;
19903;SDS011;10114;50.970;4.962;2023-03-26T18:59:02;13.40;;;2.13;;
19903;SDS011;10114;50.970;4.962;2023-03-26T19:01:29;9.25;;;2.20;;
19903;SDS011;10114;50.970;4.962;2023-03-26T19:04:00;7.63;;;1.95;;
19903;SDS011;10114;50.970;4.962;2023-03-26T19:06:29;10.23;;;2.45;;
19903;SDS011;10114;50.970;4.962;2023-03-26T19:09:00;10.32;;;1.80;;
19903;SDS011;10114;50.970;4.962;2023-03-26T19:11:28;10.63;;;2.67;;
19903;SDS011;10114;50.970;4.962;2023-03-26T19:13:59;7.60;;;1.98;;
19903;SDS011;10114;50.970;4.962;2023-03-26T19:16:28;6.43;;;2.17;;
19903;SDS011;10114;50.970;4.962;2023-03-26T19:18:58;15.82;;;2.10;;
19903;SDS011;10114;50.970;4.962;2023-03-26T19:21:25;9.55;;;2.30;;
19903;SDS011;10114;50.970;4.962;2023-03-26T19:23:51;15.48;;;2.72;;
19903;SDS011;10114;50.970;4.962;2023-03-26T19:26:18;16.35;;;3.08;;
19903;SDS011;10114;50.970;4.962;2023-03-26T19:28:48;9.02;;;2.03;;
19903;SDS011;10114;50.970;4.962;2023-03-26T19:33:42;6.45;;;1.73;;
19903;SDS011;10114;50.970;4.962;2023-03-26T19:38:47;17.25;;;2.35;;
19903;SDS011;10114;50.970;4.962;2023-03-26T19:41:22;16.45;;;2.05;;
19903;SDS011;10114;50.970;4.962;2023-03-26T19:43:49;13.70;;;2.35;;
19903;SDS011;10114;50.970;4.962;2023-03-26T19:46:16;15.32;;;2.35;;
19903;SDS011;10114;50.970;4.962;2023-03-26T19:48:43;10.63;;;2.22;;
19903;SDS011;10114;50.970;4.962;2023-03-26T19:51:23;9.20;;;2.15;;
19903;SDS011;10114;50.970;4.962;2023-03-26T19:53:54;11.88;;;2.40;;
19903;SDS011;10114;50.970;4.962;2023-03-26T19:56:20;12.10;;;2.28;;
19903;SDS011;10114;50.970;4.962;2023-03-26T19:58:46;12.95;;;2.33;;
19903;SDS011;10114;50.970;4.962;2023-03-26T20:01:21;13.35;;;2.00;;
19903;SDS011;10114;50.970;4.962;2023-03-26T20:03:48;11.18;;;1.77;;
19903;SDS011;10114;50.970;4.962;2023-03-26T20:06:16;7.80;;;1.67;;
19903;SDS011;10114;50.970;4.962;2023-03-26T20:08:43;11.63;;;2.53;;
19903;SDS011;10114;50.970;4.962;2023-03-26T20:11:19;12.20;;;1.85;;
19903;SDS011;10114;50.970;4.962;2023-03-26T20:13:45;2.00;;;0.85;;
19903;SDS011;10114;50.970;4.962;2023-03-26T20:16:18;9.95;;;1.70;;
19903;SDS011;10114;50.970;4.962;2023-03-26T20:18:46;13.23;;;1.45;;
19903;SDS011;10114;50.970;4.962;2023-03-26T20:21:14;4.35;;;1.48;;
19903;SDS011;10114;50.970;4.962;2023-03-26T20:23:40;11.93;;;2.42;;
19903;SDS011;10114;50.970;4.962;2023-03-26T20:26:11;11.10;;;1.80;;
19903;SDS011;10114;50.970;4.962;2023-03-26T20:28:37;7.15;;;1.75;;
19903;SDS011;10114;50.970;4.962;2023-03-26T20:31:03;10.23;;;1.58;;
19903;SDS011;10114;50.970;4.962;2023-03-26T20:33:30;12.55;;;1.73;;
19903;SDS011;10114;50.970;4.962;2023-03-26T20:35:56;8.27;;;1.85;;
19903;SDS011;10114;50.970;4.962;2023-03-26T20:38:23;5.47;;;1.25;;
19903;SDS011;10114;50.970;4.962;2023-03-26T20:40:52;7.93;;;1.80;;
19903;SDS011;10114;50.970;4.962;2023-03-26T20:43:19;9.25;;;1.60;;
19903;SDS011;10114;50.970;4.962;2023-03-26T20:45:48;16.20;;;2.30;;
19903;SDS011;10114;50.970;4.962;2023-03-26T20:48:14;14.82;;;1.85;;
19903;SDS011;10114;50.970;4.962;2023-03-26T20:50:46;6.70;;;1.92;;
19903;SDS011;10114;50.970;4.962;2023-03-26T20:53:12;12.60;;;1.90;;
19903;SDS011;10114;50.970;4.962;2023-03-26T20:55:40;9.18;;;1.85;;
19903;SDS011;10114;50.970;4.962;2023-03-26T20:58:10;17.55;;;2.22;;